createdAt,value
2024-04-15T00:00:32.594Z,44.02
2024-04-15T00:02:59.698Z,44.01
2024-04-15T00:05:29.633Z,44.06
2024-04-15T00:07:59.690Z,44.35
2024-04-15T00:10:30.169Z,44.40
2024-04-15T00:12:57.250Z,44.54
2024-04-15T00:15:27.140Z,44.61
2024-04-15T00:17:54.285Z,44.33
2024-04-15T00:20:24.322Z,44.98
2024-04-15T00:22:51.422Z,45.03
2024-04-15T00:25:23.843Z,45.04
2024-04-15T00:27:50.990Z,45.03
2024-04-15T00:30:21.089Z,45.18
2024-04-15T00:32:48.222Z,45.35
2024-04-15T00:35:17.969Z,45.64
2024-04-15T00:37:45.163Z,45.54
2024-04-15T00:40:15.077Z,45.81
2024-04-15T00:42:44.900Z,45.62
2024-04-15T00:45:33.090Z,45.76
2024-04-15T00:48:00.606Z,45.70
2024-04-15T00:50:32.057Z,45.81
2024-04-15T00:53:03.370Z,46.26
2024-04-15T00:55:35.811Z,46.39
2024-04-15T00:58:07.672Z,46.37
2024-04-15T01:00:38.070Z,46.21
2024-04-15T01:03:06.956Z,45.76
2024-04-15T01:05:38.647Z,46.32
2024-04-15T01:08:06.882Z,46.37
2024-04-15T01:13:09.917Z,46.37
2024-04-15T01:15:39.779Z,46.87
2024-04-15T01:18:07.185Z,47.17
2024-04-15T01:20:38.008Z,47.27
2024-04-15T01:23:11.505Z,47.26
2024-04-15T01:25:44.050Z,47.06
2024-04-15T01:28:11.973Z,47.45
2024-04-15T01:30:41.892Z,47.41
2024-04-15T01:33:09.124Z,47.74
2024-04-15T01:35:38.951Z,47.73
2024-04-15T01:38:06.354Z,47.80
2024-04-15T01:40:36.394Z,47.93
2024-04-15T01:43:06.469Z,47.85
2024-04-15T01:45:36.395Z,48.27
2024-04-15T01:48:04.100Z,48.25
2024-04-15T01:50:33.963Z,48.50
2024-04-15T01:53:01.276Z,48.79
2024-04-15T01:55:30.960Z,49.09
2024-04-15T01:57:58.079Z,49.50
2024-04-15T02:00:30.483Z,49.27
2024-04-15T02:02:57.816Z,49.35
2024-04-15T02:05:27.539Z,49.49
2024-04-15T02:07:58.008Z,50.06
2024-04-15T02:10:27.943Z,49.82
2024-04-15T02:12:55.138Z,49.61
2024-04-15T02:15:24.916Z,49.95
2024-04-15T02:17:54.841Z,49.74
2024-04-15T02:20:24.579Z,49.59
2024-04-15T02:22:51.743Z,49.87
2024-04-15T02:25:21.532Z,49.85
2024-04-15T02:27:48.768Z,50.13
2024-04-15T02:30:18.634Z,50.24
2024-04-15T02:32:45.917Z,50.41
2024-04-15T02:35:18.445Z,50.82
2024-04-15T02:37:45.598Z,50.87
2024-04-15T02:40:16.468Z,50.96
2024-04-15T02:42:44.175Z,50.63
2024-04-15T02:45:13.918Z,50.80
2024-04-15T02:47:41.886Z,51.04
2024-04-15T02:50:11.786Z,51.20
2024-04-15T02:52:45.092Z,51.72
2024-04-15T02:55:12.593Z,51.39
2024-04-15T02:57:42.404Z,51.52
2024-04-15T03:00:10.446Z,51.47
2024-04-15T03:02:40.247Z,51.63
2024-04-15T03:05:08.096Z,51.72
2024-04-15T03:07:38.168Z,51.69
2024-04-15T03:10:08.661Z,51.92
2024-04-15T03:12:38.514Z,51.96
2024-04-15T03:15:06.111Z,51.94
2024-04-15T03:17:36.030Z,52.08
2024-04-15T03:20:05.484Z,51.93
2024-04-15T03:22:36.214Z,51.96
2024-04-15T03:25:03.436Z,51.68
2024-04-15T03:27:36.909Z,52.00
2024-04-15T03:30:04.979Z,52.30
2024-04-15T03:32:34.681Z,51.80
2024-04-15T03:35:02.146Z,52.09
2024-04-15T03:37:31.912Z,52.22
2024-04-15T03:40:01.707Z,52.23
2024-04-15T03:42:31.580Z,52.23
2024-04-15T03:45:03.988Z,52.30
2024-04-15T03:47:31.234Z,52.67
2024-04-15T03:50:00.976Z,52.74
2024-04-15T03:52:28.092Z,53.13
2024-04-15T03:54:57.820Z,52.50
2024-04-15T03:57:24.943Z,52.68
2024-04-15T03:59:54.627Z,52.76
2024-04-15T04:02:24.683Z,52.46
2024-04-15T04:04:54.622Z,52.60
2024-04-15T04:07:22.519Z,52.66
2024-04-15T04:09:52.535Z,52.54
2024-04-15T04:12:20.578Z,52.58
2024-04-15T04:14:50.351Z,52.98
2024-04-15T04:17:17.799Z,53.45
2024-04-15T04:19:50.327Z,53.04
2024-04-15T04:22:17.892Z,53.10
2024-04-15T04:24:47.778Z,53.19
2024-04-15T04:27:14.990Z,53.22
2024-04-15T04:29:44.706Z,52.91
2024-04-15T04:32:12.030Z,53.32
2024-04-15T04:34:44.156Z,52.31
2024-04-15T04:37:16.478Z,52.75
2024-04-15T04:39:46.997Z,52.65
2024-04-15T04:42:14.379Z,52.89
2024-04-15T04:44:44.441Z,52.96
2024-04-15T04:47:11.897Z,52.72
2024-04-15T04:49:41.753Z,52.81
2024-04-15T04:52:09.050Z,52.99
2024-04-15T04:54:41.419Z,52.99
2024-04-15T04:57:09.983Z,53.10
2024-04-15T04:59:39.868Z,53.25
2024-04-15T05:02:08.122Z,52.97
2024-04-15T05:04:38.161Z,52.88
2024-04-15T05:07:05.487Z,53.45
2024-04-15T05:09:35.291Z,53.47
2024-04-15T05:12:05.717Z,53.55
2024-04-15T05:14:35.586Z,53.34
2024-04-15T05:17:03.014Z,53.50
2024-04-15T05:19:33.006Z,53.39
2024-04-15T05:22:00.366Z,53.29
2024-04-15T05:24:30.165Z,53.18
2024-04-15T05:26:58.726Z,52.83
2024-04-15T05:29:31.544Z,52.69
2024-04-15T05:31:58.945Z,52.54
2024-04-15T05:34:28.799Z,52.62
2024-04-15T05:36:56.018Z,53.04
2024-04-15T05:39:25.795Z,52.72
2024-04-15T05:41:52.981Z,52.53
2024-04-15T05:44:22.797Z,52.88
2024-04-15T05:46:53.558Z,53.32
2024-04-15T05:49:23.537Z,53.37
2024-04-15T05:51:50.826Z,53.45
2024-04-15T05:54:20.558Z,53.88
2024-04-15T05:56:47.703Z,53.66
2024-04-15T05:59:17.414Z,53.99
2024-04-15T06:01:44.673Z,54.21
2024-04-15T06:04:17.356Z,54.37
2024-04-15T06:06:44.530Z,54.43
2024-04-15T06:09:14.338Z,54.73
2024-04-15T06:11:42.608Z,55.57
2024-04-15T06:14:12.463Z,55.72
2024-04-15T06:16:39.799Z,55.79
2024-04-15T06:19:10.061Z,55.42
2024-04-15T06:21:40.038Z,55.64
2024-04-15T06:24:10.232Z,56.77
2024-04-15T06:26:41.615Z,56.02
2024-04-15T06:29:08.827Z,55.98
2024-04-15T06:31:38.598Z,56.42
2024-04-15T06:34:05.922Z,56.42
2024-04-15T06:36:35.804Z,56.72
2024-04-15T06:39:05.595Z,56.83
2024-04-15T06:41:35.325Z,56.93
2024-04-15T06:44:02.461Z,57.04
2024-04-15T06:46:32.930Z,57.27
2024-04-15T06:49:00.074Z,57.51
2024-04-15T06:51:29.876Z,57.67
2024-04-15T06:53:57.083Z,57.86
2024-04-15T06:56:29.653Z,58.54
2024-04-15T06:58:56.782Z,59.34
2024-04-15T07:01:26.594Z,59.79
2024-04-15T07:03:53.915Z,59.82
2024-04-15T07:06:23.797Z,60.67
2024-04-15T07:08:50.985Z,60.92
2024-04-15T07:11:20.765Z,61.33
2024-04-15T07:13:50.864Z,61.53
2024-04-15T07:16:20.807Z,61.67
2024-04-15T07:18:48.725Z,61.86
2024-04-15T07:21:18.706Z,62.10
2024-04-15T07:23:47.251Z,62.00
2024-04-15T07:26:17.089Z,62.28
2024-04-15T07:28:44.259Z,62.83
2024-04-15T07:31:16.693Z,63.08
2024-04-15T07:33:43.788Z,63.10
2024-04-15T07:36:13.669Z,63.22
2024-04-15T07:38:40.868Z,63.51
2024-04-15T07:41:10.699Z,63.53
2024-04-15T07:43:37.937Z,64.10
2024-04-15T07:46:08.061Z,64.03
2024-04-15T07:48:40.753Z,64.48
2024-04-15T07:51:07.944Z,64.43
2024-04-15T07:53:37.817Z,64.61
2024-04-15T07:56:05.374Z,65.05
2024-04-15T07:58:35.698Z,65.79
2024-04-15T08:01:03.065Z,66.27
2024-04-15T08:03:34.091Z,66.75
2024-04-15T08:06:04.340Z,66.27
2024-04-15T08:08:34.124Z,66.40
2024-04-15T08:11:02.734Z,66.69
2024-04-15T08:13:35.484Z,66.77
2024-04-15T08:16:03.021Z,66.86
2024-04-15T08:18:32.859Z,66.25
2024-04-15T08:21:00.126Z,66.00
2024-04-15T08:23:32.886Z,66.45
2024-04-15T08:26:00.104Z,66.14
2024-04-15T08:28:30.035Z,65.96
2024-04-15T08:30:57.264Z,65.57
2024-04-15T08:33:27.154Z,64.91
2024-04-15T08:35:54.444Z,63.42
2024-04-15T08:38:26.923Z,63.80
2024-04-15T08:40:58.854Z,63.65
2024-04-15T08:43:29.948Z,64.08
2024-04-15T08:46:00.183Z,63.99
2024-04-15T08:48:30.515Z,63.54
2024-04-15T08:50:59.022Z,63.60
2024-04-15T08:53:30.055Z,63.56
2024-04-15T08:56:02.879Z,63.87
2024-04-15T08:58:32.976Z,63.51
2024-04-15T09:01:01.368Z,62.28
2024-04-15T09:03:32.561Z,61.25
2024-04-15T09:05:59.844Z,61.74
2024-04-15T09:08:29.612Z,61.81
2024-04-15T09:11:00.763Z,62.71
2024-04-15T09:13:30.552Z,63.03
2024-04-15T09:15:57.802Z,63.09
2024-04-15T09:18:29.096Z,62.00
2024-04-15T09:21:00.924Z,61.62
2024-04-15T09:23:32.910Z,61.92
2024-04-15T09:26:02.740Z,62.08
2024-04-15T09:28:32.732Z,62.38
2024-04-15T09:31:00.177Z,60.76
2024-04-15T09:33:30.277Z,60.20
2024-04-15T09:35:57.524Z,60.28
2024-04-15T09:38:28.043Z,60.15
2024-04-15T09:40:55.200Z,59.77
2024-04-15T09:43:29.081Z,59.37
2024-04-15T09:45:57.806Z,59.13
2024-04-15T09:48:30.086Z,58.75
2024-04-15T09:51:06.244Z,57.77
2024-04-15T09:53:41.245Z,56.91
2024-04-15T09:56:13.775Z,56.94
2024-04-15T09:58:47.684Z,56.80
2024-04-15T10:01:20.662Z,56.66
2024-04-15T10:03:55.055Z,56.91
2024-04-15T10:06:32.524Z,56.38
2024-04-15T10:09:03.733Z,56.37
2024-04-15T10:11:31.582Z,55.29
2024-04-15T10:14:04.301Z,54.16
2024-04-15T10:16:38.944Z,53.78
2024-04-15T10:19:12.788Z,54.17
2024-04-15T10:21:41.791Z,53.34
2024-04-15T10:24:15.740Z,53.18
2024-04-15T10:26:43.678Z,52.67
2024-04-15T10:29:23.224Z,50.83
2024-04-15T10:31:52.462Z,51.11
2024-04-15T10:34:24.879Z,49.47
2024-04-15T10:36:53.508Z,48.33
2024-04-15T10:39:25.151Z,46.77
2024-04-15T10:41:52.753Z,46.58
2024-04-15T10:44:25.399Z,47.39
2024-04-15T10:46:52.549Z,46.15
2024-04-15T10:49:23.401Z,44.93
2024-04-15T10:51:50.704Z,44.79
2024-04-15T10:54:20.601Z,42.92
2024-04-15T10:56:48.320Z,42.15
2024-04-15T10:59:19.269Z,42.53
2024-04-15T11:01:49.322Z,43.52
2024-04-15T11:04:19.172Z,42.38
2024-04-15T11:06:48.115Z,42.51
2024-04-15T11:09:18.398Z,41.32
2024-04-15T11:11:45.785Z,41.02
2024-04-15T11:14:16.406Z,41.21
2024-04-15T11:16:49.555Z,42.24
2024-04-15T11:19:21.754Z,42.51
2024-04-15T11:21:49.931Z,43.38
2024-04-15T11:24:20.359Z,44.52
2024-04-15T11:26:50.258Z,45.75
2024-04-15T11:29:20.785Z,46.39
2024-04-15T11:31:50.995Z,46.24
2024-04-15T11:34:21.001Z,45.96
2024-04-15T11:36:48.326Z,45.82
2024-04-15T11:39:18.194Z,45.33
2024-04-15T11:41:46.011Z,45.98
2024-04-15T11:44:16.605Z,46.60
2024-04-15T11:46:43.932Z,47.30
2024-04-15T11:49:17.186Z,48.44
2024-04-15T11:51:45.721Z,48.63
2024-04-15T11:54:15.742Z,48.69
2024-04-15T11:56:43.163Z,48.75
2024-04-15T11:59:13.389Z,48.41
2024-04-15T12:01:40.797Z,47.74
2024-04-15T12:04:10.906Z,47.51
2024-04-15T12:06:44.035Z,47.29
2024-04-15T12:09:16.493Z,46.85
2024-04-15T12:11:43.838Z,46.41
2024-04-15T12:14:13.974Z,44.48
2024-04-15T12:16:41.525Z,44.34
2024-04-15T12:19:12.078Z,44.41
2024-04-15T12:21:41.895Z,43.67
2024-04-15T12:24:11.880Z,44.26
2024-04-15T12:26:39.104Z,44.55
2024-04-15T12:29:09.484Z,43.83
2024-04-15T12:31:36.691Z,42.49
2024-04-15T12:34:06.877Z,43.10
2024-04-15T12:36:35.832Z,43.50
2024-04-15T12:39:08.415Z,44.67
2024-04-15T12:41:35.604Z,44.07
2024-04-15T12:44:06.855Z,44.86
2024-04-15T12:46:34.670Z,42.62
2024-04-15T12:49:04.827Z,43.16
2024-04-15T12:51:32.051Z,42.77
2024-04-15T12:54:01.856Z,41.26
2024-04-15T12:56:32.663Z,41.56
2024-04-15T12:59:05.279Z,41.46
2024-04-15T13:01:32.784Z,41.83
2024-04-15T13:04:05.443Z,41.18
2024-04-15T13:06:32.765Z,40.72
2024-04-15T13:09:02.986Z,41.20
2024-04-15T13:11:33.368Z,40.50
2024-04-15T13:14:03.626Z,40.68
2024-04-15T13:16:31.012Z,40.83
2024-04-15T13:19:01.045Z,41.52
2024-04-15T13:21:28.175Z,41.20
2024-04-15T13:23:57.896Z,38.98
2024-04-15T13:26:25.105Z,38.55
2024-04-15T13:28:57.699Z,38.31
2024-04-15T13:31:25.077Z,39.36
2024-04-15T13:33:56.315Z,39.94
2024-04-15T13:36:24.088Z,40.13
2024-04-15T13:38:54.524Z,39.74
2024-04-15T13:41:24.125Z,39.36
2024-04-15T13:43:53.965Z,40.24
2024-04-15T13:46:23.929Z,40.72
2024-04-15T13:48:53.713Z,40.65
2024-04-15T13:51:20.863Z,40.77
2024-04-15T13:53:50.677Z,40.90
2024-04-15T13:56:17.869Z,41.01
2024-04-15T13:58:47.901Z,40.77
2024-04-15T14:01:15.121Z,40.93
2024-04-15T14:03:48.054Z,41.51
2024-04-15T14:06:15.361Z,42.70
2024-04-15T14:08:46.205Z,42.83
2024-04-15T14:11:13.549Z,42.49
2024-04-15T14:13:44.044Z,42.45
2024-04-15T14:16:11.999Z,42.72
2024-04-15T14:18:42.035Z,42.75
2024-04-15T14:21:12.887Z,42.55
2024-04-15T14:23:42.848Z,42.40
2024-04-15T14:26:10.330Z,43.18
2024-04-15T14:28:41.406Z,44.45
2024-04-15T14:31:09.086Z,46.19
2024-04-15T14:33:39.334Z,48.22
2024-04-15T14:36:09.556Z,48.22
2024-04-15T14:38:44.551Z,49.38
2024-04-15T14:41:11.767Z,49.75
2024-04-15T14:43:42.554Z,49.21
2024-04-15T14:46:11.033Z,49.12
2024-04-15T14:48:40.992Z,49.41
2024-04-15T14:51:08.160Z,49.63
2024-04-15T14:53:41.543Z,49.92
2024-04-15T14:56:11.544Z,50.11
2024-04-15T14:58:41.930Z,49.62
2024-04-15T15:01:09.760Z,50.27
2024-04-15T15:03:39.693Z,50.23
2024-04-15T15:06:09.543Z,50.56
2024-04-15T15:08:41.811Z,50.48
2024-04-15T15:11:12.610Z,50.73
2024-04-15T15:13:42.887Z,51.62
2024-04-15T15:16:11.901Z,51.22
2024-04-15T15:18:42.125Z,51.56
2024-04-15T15:21:20.095Z,52.41
2024-04-15T15:23:53.948Z,52.45
2024-04-15T15:26:24.567Z,52.92
2024-04-15T15:28:54.425Z,53.20
2024-04-15T15:31:21.699Z,53.28
2024-04-15T15:33:54.765Z,53.67
2024-04-15T15:36:22.595Z,54.43
2024-04-15T15:38:52.352Z,53.78
2024-04-15T15:41:19.466Z,54.63
2024-04-15T15:43:52.401Z,54.07
2024-04-15T15:46:20.192Z,54.72
2024-04-15T15:48:49.996Z,55.16
2024-04-15T15:51:17.241Z,55.09
2024-04-15T15:53:47.189Z,55.05
2024-04-15T15:56:16.620Z,55.47
2024-04-15T15:58:47.127Z,55.88
2024-04-15T16:01:17.106Z,56.00
2024-04-15T16:03:47.003Z,55.36
2024-04-15T16:06:14.314Z,56.01
2024-04-15T16:08:44.479Z,56.06
2024-04-15T16:11:14.401Z,56.51
2024-04-15T16:13:42.049Z,56.59
2024-04-15T16:16:12.984Z,57.00
2024-04-15T16:18:45.138Z,56.48
2024-04-15T16:21:15.399Z,56.45
2024-04-15T16:23:42.428Z,56.40
2024-04-15T16:26:14.804Z,56.38
2024-04-15T16:28:46.768Z,56.78
2024-04-15T16:31:17.905Z,56.26
2024-04-15T16:33:47.765Z,56.02
2024-04-15T16:36:18.239Z,56.55
2024-04-15T16:38:45.344Z,56.53
2024-04-15T16:41:18.419Z,56.71
2024-04-15T16:43:45.579Z,57.11
2024-04-15T16:46:15.483Z,57.30
2024-04-15T16:48:42.933Z,56.92
2024-04-15T16:51:15.496Z,56.99
2024-04-15T16:53:42.726Z,56.82
2024-04-15T16:56:15.056Z,56.87
2024-04-15T16:58:42.368Z,57.30
2024-04-15T17:01:12.558Z,57.27
2024-04-15T17:03:40.019Z,57.42
2024-04-15T17:06:11.180Z,57.07
2024-04-15T17:08:41.094Z,56.86
2024-04-15T17:11:10.938Z,57.18
2024-04-15T17:13:38.109Z,57.05
2024-04-15T17:16:12.412Z,56.65
2024-04-15T17:18:39.931Z,57.45
2024-04-15T17:21:09.669Z,57.57
2024-04-15T17:23:36.849Z,58.04
2024-04-15T17:26:09.760Z,58.22
2024-04-15T17:28:36.953Z,58.19
2024-04-15T17:31:07.111Z,57.98
2024-04-15T17:33:34.470Z,58.05
2024-04-15T17:36:04.456Z,58.42
2024-04-15T17:38:33.560Z,58.67
2024-04-15T17:41:03.435Z,59.14
2024-04-15T17:43:33.293Z,58.59
2024-04-15T17:46:03.043Z,58.82
2024-04-15T17:48:30.214Z,59.12
2024-04-15T17:50:59.956Z,58.95
2024-04-15T17:53:27.070Z,59.05
2024-04-15T17:55:58.413Z,59.52
2024-04-15T17:58:25.728Z,59.72
2024-04-15T18:00:58.151Z,59.91
2024-04-15T18:03:25.402Z,59.60
2024-04-15T18:05:55.383Z,60.20
2024-04-15T18:08:22.525Z,60.08
2024-04-15T18:10:52.389Z,59.98
2024-04-15T18:13:19.572Z,60.69
2024-04-15T18:15:50.123Z,60.48
2024-04-15T18:18:20.204Z,60.76
2024-04-15T18:20:49.990Z,60.98
2024-04-15T18:23:17.176Z,61.26
2024-04-15T18:25:47.054Z,61.10
2024-04-15T18:28:17.238Z,61.68
2024-04-15T18:30:47.025Z,61.73
2024-04-15T18:33:14.288Z,62.00
2024-04-15T18:35:46.758Z,61.76
2024-04-15T18:38:16.804Z,61.89
2024-04-15T18:40:46.744Z,62.27
2024-04-15T18:43:13.938Z,61.78
2024-04-15T18:45:44.129Z,61.83
2024-04-15T18:48:11.485Z,62.10
2024-04-15T18:50:41.283Z,61.75
2024-04-15T18:53:11.056Z,62.10
2024-04-15T18:55:41.135Z,61.69
2024-04-15T18:58:12.090Z,61.82
2024-04-15T19:00:42.417Z,62.32
2024-04-15T19:03:10.284Z,62.48
2024-04-15T19:05:40.194Z,63.16
2024-04-15T19:08:07.757Z,62.82
2024-04-15T19:10:40.636Z,62.96
2024-04-15T19:13:07.899Z,62.92
2024-04-15T19:15:37.705Z,62.52
2024-04-15T19:18:05.885Z,62.98
2024-04-15T19:20:37.270Z,63.00
2024-04-15T19:23:04.946Z,63.04
2024-04-15T19:25:34.775Z,62.90
2024-04-15T19:28:05.354Z,63.01
2024-04-15T19:30:35.198Z,62.82
2024-04-15T19:33:04.830Z,62.95
2024-04-15T19:35:34.816Z,63.53
2024-04-15T19:38:03.893Z,63.51
2024-04-15T19:40:33.822Z,63.57
2024-04-15T19:43:05.480Z,63.64
2024-04-15T19:45:36.041Z,63.49
2024-04-15T19:48:03.819Z,63.57
2024-04-15T19:50:33.882Z,63.89
2024-04-15T19:53:00.958Z,63.81
2024-04-15T19:55:30.856Z,63.57
2024-04-15T19:58:01.055Z,63.99
2024-04-15T20:00:35.836Z,64.20
2024-04-15T20:03:03.082Z,64.50
2024-04-15T20:05:32.971Z,64.57
2024-04-15T20:08:08.797Z,64.04
2024-04-15T20:10:39.822Z,64.57
2024-04-15T20:13:07.017Z,64.78
2024-04-15T20:15:39.470Z,64.35
2024-04-15T20:18:11.429Z,64.34
2024-04-15T20:20:47.568Z,64.05
2024-04-15T20:23:16.140Z,64.44
2024-04-15T20:25:49.945Z,64.46
2024-04-15T20:28:18.564Z,64.50
2024-04-15T20:30:54.059Z,64.46
2024-04-15T20:33:21.230Z,64.53
2024-04-15T20:35:51.202Z,64.24
2024-04-15T20:38:18.643Z,64.43
2024-04-15T20:40:51.749Z,64.45
2024-04-15T20:43:19.058Z,64.34
2024-04-15T20:45:51.567Z,64.38
2024-04-15T20:48:19.339Z,64.56
2024-04-15T20:50:49.195Z,64.68
2024-04-15T20:53:16.404Z,64.54
2024-04-15T20:55:46.457Z,64.38
2024-04-15T20:58:13.831Z,64.33
2024-04-15T21:00:44.737Z,64.54
2024-04-15T21:03:14.728Z,65.06
2024-04-15T21:05:44.648Z,65.27
2024-04-15T21:08:11.798Z,65.41
2024-04-15T21:10:41.623Z,65.16
2024-04-15T21:13:09.175Z,65.68
2024-04-15T21:15:39.015Z,65.59
2024-04-15T21:18:06.560Z,66.01
2024-04-15T21:20:38.910Z,66.36
2024-04-15T21:23:06.035Z,66.17
2024-04-15T21:25:38.634Z,66.56
2024-04-15T21:28:06.753Z,67.20
2024-04-15T21:30:36.652Z,67.04
2024-04-15T21:33:04.168Z,66.97
2024-04-15T21:35:33.966Z,67.24
2024-04-15T21:38:04.077Z,66.54
2024-04-15T21:40:34.056Z,66.73
2024-04-15T21:43:01.297Z,66.78
2024-04-15T21:45:31.134Z,66.96
2024-04-15T21:47:58.467Z,66.67
2024-04-15T21:50:30.788Z,66.89
2024-04-15T21:52:57.969Z,66.80
2024-04-15T21:55:30.748Z,66.91
2024-04-15T21:57:59.218Z,67.05
2024-04-15T22:00:29.204Z,67.05
2024-04-15T22:02:58.026Z,66.96
2024-04-15T22:05:27.934Z,67.00
2024-04-15T22:07:55.109Z,67.14
2024-04-15T22:10:25.426Z,67.36
2024-04-15T22:12:55.265Z,67.21
2024-04-15T22:15:25.504Z,67.34
2024-04-15T22:17:53.254Z,67.35
2024-04-15T22:20:23.603Z,67.59
2024-04-15T22:22:50.725Z,67.70
2024-04-15T22:25:22.872Z,67.46
2024-04-15T22:27:52.658Z,67.85
2024-04-15T22:30:25.372Z,67.92
2024-04-15T22:32:54.076Z,67.98
2024-04-15T22:35:24.080Z,68.11
2024-04-15T22:37:51.441Z,68.25
2024-04-15T22:40:23.416Z,68.22
2024-04-15T22:42:50.511Z,68.49
2024-04-15T22:45:20.325Z,68.91
2024-04-15T22:47:50.068Z,68.41
2024-04-15T22:50:20.005Z,69.19
2024-04-15T22:52:47.123Z,69.58
2024-04-15T22:55:17.099Z,70.18
2024-04-15T22:57:44.301Z,70.72
2024-04-15T23:00:15.504Z,71.19
2024-04-15T23:02:43.379Z,71.53
2024-04-15T23:05:15.813Z,71.63
2024-04-15T23:07:42.924Z,71.77
2024-04-15T23:10:12.740Z,72.05
2024-04-15T23:12:40.009Z,71.97
2024-04-15T23:15:10.137Z,72.54
2024-04-15T23:17:37.339Z,72.80
2024-04-15T23:20:07.842Z,72.72
2024-04-15T23:22:37.609Z,73.13
2024-04-15T23:25:09.808Z,72.88
2024-04-15T23:27:37.240Z,73.00
2024-04-15T23:30:07.660Z,73.09
2024-04-15T23:32:34.888Z,73.17
2024-04-15T23:35:04.718Z,73.14
2024-04-15T23:37:31.872Z,72.99
2024-04-15T23:40:04.407Z,73.01
2024-04-15T23:42:31.579Z,73.16
2024-04-15T23:45:01.311Z,73.59
2024-04-15T23:47:28.516Z,73.85
2024-04-15T23:49:58.331Z,73.91
2024-04-15T23:52:25.502Z,73.89
2024-04-15T23:54:55.451Z,74.34
2024-04-15T23:57:25.238Z,74.63
2024-04-15T23:59:54.937Z,75.21
